Time;durP1;ratioP1;P1;durP2;ratioP2;P2;SDS_P1;SDS_P2;PMS_P1;PMS_P2;Temp;Humidity;BMP_temperature;BMP_pressure;BME280_temperature;BME280_humidity;BME280_pressure;Samples;Min_cycle;Max_cycle;Signal;HPM_P1;HPM_P2
2022/01/18 00:00:39;;;;;;;15.80;9.63;;;;;;;-143.53;100.00;58366.03;2092509;28;20203;-63
2022/01/18 00:01:41;;;;;;;22.20;11.02;;;;;;;-143.53;100.00;58366.03;2090929;28;21045;-63
2022/01/18 00:02:43;;;;;;;16.15;10.23;;;;;;;-143.53;100.00;58366.03;2092616;28;20205;-63
2022/01/18 00:03:45;;;;;;;16.08;9.70;;;;;;;-143.53;100.00;58366.03;2093157;28;20199;-62
2022/01/18 00:04:47;;;;;;;20.42;10.27;;;;;;;-143.53;100.00;58366.03;2092857;28;20288;-62
2022/01/18 00:05:50;;;;;;;28.15;10.60;;;;;;;-143.53;100.00;58366.03;2092866;28;20513;-63
2022/01/18 00:06:53;;;;;;;15.73;10.02;;;;;;;-143.53;100.00;58366.03;2093485;28;20580;-62
2022/01/18 00:07:54;;;;;;;18.20;10.27;;;;;;;-143.53;100.00;58366.03;2093549;28;20196;-62
2022/01/18 00:08:56;;;;;;;22.77;10.02;;;;;;;-143.53;100.00;58366.03;2092660;28;20203;-63
2022/01/18 00:09:57;;;;;;;20.10;10.07;;;;;;;-143.53;100.00;58366.03;2091887;28;20227;-63
2022/01/18 00:10:59;;;;;;;19.33;10.68;;;;;;;-143.53;100.00;58366.03;2092931;28;20200;-62
2022/01/18 00:12:14;;;;;;;26.20;11.07;;;;;;;-143.53;100.00;58366.03;2092105;28;20200;-62
2022/01/18 00:13:58;;;;;;;19.92;10.50;;;;;;;-143.53;100.00;58366.03;2091225;28;20184;-62
2022/01/18 00:14:55;;;;;;;20.77;10.40;;;;;;;-143.53;100.00;58366.03;2089437;28;20228;-62
2022/01/18 00:17:39;;;;;;;17.10;9.57;;;;;;;-143.53;100.00;58366.03;2092068;28;20286;-62
2022/01/18 00:18:41;;;;;;;15.77;8.15;;;;;;;-143.53;100.00;58366.03;2092418;28;20666;-62
2022/01/18 00:19:55;;;;;;;16.05;9.70;;;;;;;-143.53;100.00;58366.03;2092656;28;20225;-62
2022/01/18 00:22:23;;;;;;;19.83;9.60;;;;;;;-143.53;100.00;58366.03;2092249;28;20203;-63
2022/01/18 00:23:25;;;;;;;19.63;9.57;;;;;;;-143.53;100.00;58366.03;2091226;28;20227;-63
2022/01/18 00:24:26;;;;;;;20.75;11.02;;;;;;;-143.53;100.00;58366.03;2091927;28;20230;-63
2022/01/18 00:25:28;;;;;;;21.95;10.63;;;;;;;-143.53;100.00;58366.03;2092903;28;20636;-62
2022/01/18 00:26:32;;;;;;;20.55;9.85;;;;;;;-143.53;100.00;58366.03;2092784;28;20653;-63
2022/01/18 00:27:33;;;;;;;19.67;10.65;;;;;;;-143.53;100.00;58366.03;2092818;28;20564;-62
2022/01/18 00:28:38;;;;;;;20.73;9.52;;;;;;;-143.53;100.00;58366.03;2091670;28;20577;-62
2022/01/18 00:29:50;;;;;;;17.38;9.77;;;;;;;-143.53;100.00;58366.03;2091286;28;20246;-62
2022/01/18 00:32:14;;;;;;;16.25;8.75;;;;;;;-143.53;100.00;58366.03;2092244;28;20232;-62
2022/01/18 00:35:21;;;;;;;18.58;10.15;;;;;;;-143.53;100.00;58366.03;2092303;28;20213;-62
2022/01/18 00:36:29;;;;;;;16.05;9.30;;;;;;;-143.53;100.00;58366.03;2092752;28;20192;-62
2022/01/18 00:37:39;;;;;;;22.95;9.77;;;;;;;-143.53;100.00;58366.03;2092751;28;20535;-62
2022/01/18 00:38:47;;;;;;;17.73;9.65;;;;;;;-143.53;100.00;58366.03;2091055;28;20199;-62
2022/01/18 00:39:49;;;;;;;21.48;9.80;;;;;;;-143.53;100.00;58366.03;2091496;28;20235;-62
2022/01/18 00:40:50;;;;;;;14.90;9.52;;;;;;;-143.53;100.00;58366.03;2091287;28;20199;-63
2022/01/18 00:41:53;;;;;;;18.35;10.45;;;;;;;-143.53;100.00;58366.03;2093214;28;20203;-63
2022/01/18 00:42:55;;;;;;;16.85;10.52;;;;;;;-143.53;100.00;58366.03;2092961;28;20197;-62
2022/01/18 00:43:56;;;;;;;21.50;9.65;;;;;;;-143.53;100.00;58366.03;2092652;28;20203;-62
2022/01/18 00:44:58;;;;;;;16.88;9.77;;;;;;;-143.53;100.00;58366.03;2093098;28;20254;-62
2022/01/18 00:46:00;;;;;;;16.83;9.43;;;;;;;-143.53;100.00;58366.03;2093884;28;20207;-61
2022/01/18 00:47:01;;;;;;;19.83;10.02;;;;;;;-143.53;100.00;58366.03;2092485;28;20192;-61
2022/01/18 00:48:03;;;;;;;25.40;9.55;;;;;;;-143.53;100.00;58366.03;2092341;28;20196;-61
2022/01/18 00:49:05;;;;;;;24.00;10.90;;;;;;;-143.53;100.00;58366.03;2092523;28;20200;-61
2022/01/18 00:50:08;;;;;;;19.85;9.98;;;;;;;-143.53;100.00;58366.03;2092367;28;20835;-61
2022/01/18 00:51:13;;;;;;;16.60;9.77;;;;;;;-143.53;100.00;58366.03;2091695;28;20799;-62
2022/01/18 00:52:18;;;;;;;13.35;9.40;;;;;;;-143.53;100.00;58366.03;2092695;28;20237;-62
2022/01/18 00:53:20;;;;;;;17.08;9.60;;;;;;;-143.53;100.00;58366.03;2093227;28;20193;-61
2022/01/18 00:54:28;;;;;;;15.50;8.80;;;;;;;-143.53;100.00;58366.03;2091733;28;20192;-61
2022/01/18 00:55:34;;;;;;;15.98;9.52;;;;;;;-143.53;100.00;58366.03;2091788;28;20204;-61
2022/01/18 00:56:41;;;;;;;13.45;7.75;;;;;;;-143.53;100.00;58366.03;2091550;28;20196;-62
2022/01/18 00:57:42;;;;;;;17.23;9.40;;;;;;;-143.53;100.00;58366.03;2090829;28;20199;-62
2022/01/18 00:58:46;;;;;;;17.45;8.57;;;;;;;-143.53;100.00;58366.03;2092614;28;20192;-62
2022/01/18 00:59:48;;;;;;;13.68;8.63;;;;;;;-143.53;100.00;58366.03;2092384;28;20247;-61
2022/01/18 01:00:51;;;;;;;13.82;9.07;;;;;;;-143.53;100.00;58366.03;2091928;28;20212;-62
2022/01/18 01:01:52;;;;;;;13.50;8.38;;;;;;;-143.53;100.00;58366.03;2092991;28;20196;-62
2022/01/18 01:02:54;;;;;;;13.70;8.80;;;;;;;-143.53;100.00;58366.03;2092597;28;20214;-61
2022/01/18 01:04:00;;;;;;;11.68;7.93;;;;;;;-143.53;100.00;58366.03;2092569;28;20197;-62
2022/01/18 01:05:02;;;;;;;14.60;8.15;;;;;;;-143.53;100.00;58366.03;2091008;28;20239;-62
2022/01/18 01:06:06;;;;;;;19.98;9.75;;;;;;;-143.53;100.00;58366.03;2092060;28;20200;-61
2022/01/18 01:07:07;;;;;;;14.13;8.63;;;;;;;-143.53;100.00;58366.03;2090279;28;20196;-63
2022/01/18 01:08:09;;;;;;;16.00;8.70;;;;;;;-143.53;100.00;58366.03;2093230;28;20188;-62
2022/01/18 01:09:10;;;;;;;16.45;8.63;;;;;;;-143.53;100.00;58366.03;2091358;28;20666;-62
2022/01/18 01:10:12;;;;;;;17.73;8.38;;;;;;;-143.53;100.00;58366.03;2092465;28;20196;-61
2022/01/18 01:11:13;;;;;;;14.73;8.77;;;;;;;-143.53;100.00;58366.03;2090140;28;20192;-62
2022/01/18 01:12:18;;;;;;;17.50;7.47;;;;;;;-143.53;100.00;58366.03;2092310;28;20710;-61
2022/01/18 01:13:21;;;;;;;13.63;7.72;;;;;;;-143.53;100.00;58366.03;2092774;28;20572;-61
2022/01/18 01:14:25;;;;;;;13.63;8.77;;;;;;;-143.53;100.00;58366.03;2092609;28;20200;-62
2022/01/18 01:15:29;;;;;;;14.57;8.40;;;;;;;-143.53;100.00;58366.03;2092942;28;20643;-61
2022/01/18 01:17:46;;;;;;;16.85;8.90;;;;;;;-143.53;100.00;58366.03;2092162;28;20390;-61
2022/01/18 01:42:29;;;;;;;14.85;8.45;;;;;;;-143.53;100.00;58366.03;2094337;28;20203;-62
2022/01/18 01:43:38;;;;;;;13.55;8.95;;;;;;;-143.53;100.00;58366.03;2093088;28;20227;-61
2022/01/18 01:44:45;;;;;;;21.05;10.20;;;;;;;-143.53;100.00;58366.03;2093026;28;20281;-61
2022/01/18 01:45:49;;;;;;;17.85;9.40;;;;;;;-143.53;100.00;58366.03;2093084;28;20196;-61
2022/01/18 01:46:51;;;;;;;16.60;9.55;;;;;;;-143.53;100.00;58366.03;2092837;28;20210;-62
2022/01/18 01:47:55;;;;;;;16.08;8.85;;;;;;;-143.53;100.00;58366.03;2093164;28;20226;-62
2022/01/18 01:48:58;;;;;;;21.85;9.90;;;;;;;-143.53;100.00;58366.03;2092830;28;20196;-61
2022/01/18 01:50:01;;;;;;;20.85;9.48;;;;;;;-143.53;100.00;58366.03;2093112;28;20226;-61
2022/01/18 01:51:05;;;;;;;21.88;10.80;;;;;;;-143.53;100.00;58366.03;2093102;28;20550;-61
2022/01/18 01:52:09;;;;;;;15.55;8.73;;;;;;;-143.53;100.00;58366.03;2094244;28;20192;-62
2022/01/18 01:53:12;;;;;;;23.45;10.20;;;;;;;-143.53;100.00;58366.03;2094263;28;20765;-61
2022/01/18 01:54:15;;;;;;;15.15;9.52;;;;;;;-143.53;100.00;58366.03;2093792;28;20191;-61
2022/01/18 01:55:18;;;;;;;18.63;10.48;;;;;;;-143.53;100.00;58366.03;2094337;28;20196;-61
2022/01/18 01:56:20;;;;;;;18.90;9.32;;;;;;;-143.53;100.00;58366.03;2093391;28;20198;-62
2022/01/18 01:57:22;;;;;;;16.42;9.43;;;;;;;-143.53;100.00;58366.03;2094109;28;20874;-61
2022/01/18 01:58:26;;;;;;;18.25;9.68;;;;;;;-143.53;100.00;58366.03;2093915;28;20197;-61
2022/01/18 01:59:29;;;;;;;20.73;11.25;;;;;;;-143.53;100.00;58366.03;2093565;28;20231;-61
2022/01/18 02:00:30;;;;;;;15.95;9.23;;;;;;;-143.53;100.00;58366.03;2093835;28;20715;-62
2022/01/18 02:01:46;;;;;;;17.50;10.25;;;;;;;-143.53;100.00;58366.03;2093381;28;20208;-62
2022/01/18 02:02:49;;;;;;;20.42;9.15;;;;;;;-143.53;100.00;58366.03;2093555;28;20810;-61
2022/01/18 02:03:51;;;;;;;23.67;11.35;;;;;;;-143.53;100.00;58366.03;2093608;28;20204;-61
2022/01/18 02:04:53;;;;;;;21.35;9.20;;;;;;;-143.53;100.00;58366.03;2091019;28;20302;-63
2022/01/18 02:05:54;;;;;;;24.67;9.68;;;;;;;-143.53;100.00;58366.03;2093856;28;20203;-61
2022/01/18 02:06:56;;;;;;;27.33;10.15;;;;;;;-143.53;100.00;58366.03;2094170;28;20207;-62
2022/01/18 02:07:57;;;;;;;21.48;9.77;;;;;;;-143.53;100.00;58366.03;2093523;28;20212;-61
2022/01/18 02:08:59;;;;;;;19.70;10.50;;;;;;;-143.53;100.00;58366.03;2092638;28;20768;-61
2022/01/18 02:10:04;;;;;;;19.30;9.93;;;;;;;-143.53;100.00;58366.03;2092804;28;20231;-62
2022/01/18 02:11:06;;;;;;;17.40;9.93;;;;;;;-143.53;100.00;58366.03;2093887;28;20207;-61
2022/01/18 02:12:09;;;;;;;17.20;10.48;;;;;;;-143.53;100.00;58366.03;2093553;28;20534;-61
2022/01/18 02:13:13;;;;;;;19.27;10.18;;;;;;;-143.53;100.00;58366.03;2093445;28;20188;-62
2022/01/18 02:14:19;;;;;;;25.65;13.00;;;;;;;-143.53;100.00;58366.03;2094064;28;20191;-62
2022/01/18 02:15:21;;;;;;;17.23;9.82;;;;;;;-143.53;100.00;58366.03;2093739;28;20552;-62
2022/01/18 02:21:53;;;;;;;18.70;9.82;;;;;;;-143.53;100.00;58366.03;2093705;28;20210;-61
2022/01/18 02:22:56;;;;;;;22.08;10.68;;;;;;;-143.53;100.00;58366.03;2093838;28;20202;-61
2022/01/18 02:23:58;;;;;;;20.30;9.68;;;;;;;-143.53;100.00;58366.03;2093654;28;20200;-61
2022/01/18 02:25:00;;;;;;;20.73;10.35;;;;;;;-143.53;100.00;58366.03;2093562;28;20713;-61
2022/01/18 02:26:01;;;;;;;25.52;11.50;;;;;;;-143.53;100.00;58366.03;2085039;28;20648;-61
2022/01/18 02:27:03;;;;;;;23.80;10.63;;;;;;;-143.53;100.00;58366.03;2084571;28;20202;-62
2022/01/18 02:28:05;;;;;;;17.67;10.40;;;;;;;-143.53;100.00;58366.03;2093844;28;20215;-61
2022/01/18 02:29:08;;;;;;;22.70;11.18;;;;;;;-143.53;100.00;58366.03;2093843;28;20201;-62
2022/01/18 02:30:11;;;;;;;16.92;10.25;;;;;;;-143.53;100.00;58366.03;2093707;28;20201;-61
2022/01/18 02:31:12;;;;;;;23.63;12.13;;;;;;;-143.53;100.00;58366.03;2093986;28;20650;-61
2022/01/18 02:32:14;;;;;;;21.00;11.02;;;;;;;-143.53;100.00;58366.03;2094448;28;20572;-62
2022/01/18 02:33:16;;;;;;;19.77;11.27;;;;;;;-143.53;100.00;58366.03;2093338;28;20203;-63
2022/01/18 02:34:19;;;;;;;18.83;10.93;;;;;;;-143.53;100.00;58366.03;2093198;28;20228;-61
2022/01/18 02:35:21;;;;;;;22.73;10.68;;;;;;;-143.53;100.00;58366.03;2093516;28;20188;-62
2022/01/18 02:36:22;;;;;;;20.60;11.85;;;;;;;-143.53;100.00;58366.03;2093844;28;20191;-62
2022/01/18 02:37:24;;;;;;;23.52;11.40;;;;;;;-143.53;100.00;58366.03;2093942;28;20204;-61
2022/01/18 02:38:25;;;;;;;18.48;11.10;;;;;;;-143.53;100.00;58366.03;2093256;28;20540;-61
2022/01/18 02:39:28;;;;;;;18.13;10.65;;;;;;;-143.53;100.00;58366.03;2093316;28;20778;-61
2022/01/18 02:40:31;;;;;;;24.40;10.50;;;;;;;-143.53;100.00;58366.03;2093412;28;20196;-61
2022/01/18 02:41:33;;;;;;;23.50;10.77;;;;;;;-143.53;100.00;58366.03;2092431;28;20245;-61
2022/01/18 02:42:43;;;;;;;29.60;11.30;;;;;;;-143.53;100.00;58366.03;2093700;28;20207;-62
2022/01/18 02:43:50;;;;;;;23.23;11.48;;;;;;;-143.53;100.00;58366.03;2092377;28;20657;-61
2022/01/18 02:44:52;;;;;;;25.75;11.07;;;;;;;-143.53;100.00;58366.03;2092779;28;20219;-61
2022/01/18 02:45:55;;;;;;;25.50;11.85;;;;;;;-143.53;100.00;58366.03;2093967;28;20208;-61
2022/01/18 02:46:59;;;;;;;23.90;12.23;;;;;;;-143.53;100.00;58366.03;2092592;28;20227;-61
2022/01/18 02:48:01;;;;;;;24.67;13.10;;;;;;;-143.53;100.00;58366.03;2093376;28;20196;-61
2022/01/18 02:49:03;;;;;;;23.85;11.43;;;;;;;-143.53;100.00;58366.03;2092939;28;20195;-61
2022/01/18 02:50:05;;;;;;;25.08;11.52;;;;;;;-143.53;100.00;58366.03;2091948;28;20239;-61
2022/01/18 02:51:06;;;;;;;19.30;11.40;;;;;;;-143.53;100.00;58366.03;2093280;28;20585;-61
2022/01/18 02:52:08;;;;;;;20.98;10.73;;;;;;;-143.53;100.00;58366.03;2093347;28;20197;-62
2022/01/18 02:53:10;;;;;;;22.90;11.35;;;;;;;-143.53;100.00;58366.03;2092486;28;20192;-61
2022/01/18 02:54:14;;;;;;;20.25;10.80;;;;;;;-143.53;100.00;58366.03;2093056;28;20189;-62
2022/01/18 02:55:16;;;;;;;22.63;12.25;;;;;;;-143.53;100.00;58366.03;2093331;28;20192;-62
2022/01/18 02:56:17;;;;;;;20.80;11.43;;;;;;;-143.53;100.00;58366.03;2093182;28;20548;-61
2022/01/18 02:57:26;;;;;;;23.50;12.20;;;;;;;-143.53;100.00;58366.03;2093595;28;20192;-61
2022/01/18 02:58:31;;;;;;;21.73;12.25;;;;;;;-143.53;100.00;58366.03;2093981;28;20580;-61
2022/01/18 02:59:47;;;;;;;24.90;12.02;;;;;;;-143.53;100.00;58366.03;2092136;28;20263;-62
2022/01/18 03:03:45;;;;;;;18.75;9.90;;;;;;;-143.53;100.00;58366.03;2092430;28;20647;-61
2022/01/18 03:04:49;;;;;;;21.65;11.63;;;;;;;-143.53;100.00;58366.03;2092299;28;20262;-61
2022/01/18 03:05:50;;;;;;;18.85;10.50;;;;;;;-143.53;100.00;58366.03;2084618;28;20277;-61
2022/01/18 03:06:52;;;;;;;27.35;11.43;;;;;;;-143.53;100.00;58366.03;2084372;28;20196;-61
2022/01/18 03:07:54;;;;;;;17.88;10.25;;;;;;;-143.53;100.00;58366.03;2093667;28;20200;-61
2022/01/18 03:08:55;;;;;;;23.20;10.98;;;;;;;-143.53;100.00;58366.03;2093231;28;20208;-61
2022/01/18 03:09:57;;;;;;;21.23;10.05;;;;;;;-143.53;100.00;58366.03;2092708;28;20255;-61
2022/01/18 03:10:58;;;;;;;21.55;11.10;;;;;;;-143.53;100.00;58366.03;2093225;28;20192;-61
2022/01/18 03:12:02;;;;;;;21.13;11.57;;;;;;;-143.53;100.00;58366.03;2093328;28;20651;-61
2022/01/18 03:13:05;;;;;;;24.13;11.23;;;;;;;-143.53;100.00;58366.03;2092976;28;20627;-61
2022/01/18 03:14:06;;;;;;;30.73;11.52;;;;;;;-143.53;100.00;58366.03;2091266;28;20231;-62
2022/01/18 03:15:08;;;;;;;22.48;10.85;;;;;;;-143.53;100.00;58366.03;2082397;28;20189;-62
2022/01/18 03:16:10;;;;;;;20.65;11.30;;;;;;;-143.53;100.00;58366.03;2084162;28;20215;-62
2022/01/18 03:17:12;;;;;;;21.08;12.07;;;;;;;-143.53;100.00;58366.03;2093096;28;20184;-61
2022/01/18 03:18:14;;;;;;;22.15;12.07;;;;;;;-143.53;100.00;58366.03;2093266;28;20196;-61
2022/01/18 03:19:15;;;;;;;27.33;12.32;;;;;;;-143.53;100.00;58366.03;2092785;28;20551;-61
2022/01/18 03:20:19;;;;;;;23.15;12.90;;;;;;;-143.53;100.00;58366.03;2082638;28;20530;-62
2022/01/18 03:21:21;;;;;;;26.23;11.30;;;;;;;-143.53;100.00;58366.03;2085085;28;20651;-62
2022/01/18 03:22:23;;;;;;;26.92;13.63;;;;;;;-143.53;100.00;58366.03;2093593;28;20191;-61
2022/01/18 03:23:24;;;;;;;19.17;11.18;;;;;;;-143.53;100.00;58366.03;2093529;28;20207;-61
2022/01/18 03:25:38;;;;;;;23.42;10.73;;;;;;;-143.53;100.00;58366.03;2092820;28;20189;-61
2022/01/18 03:28:05;;;;;;;18.98;9.98;;;;;;;-143.53;100.00;58366.03;2085381;28;20212;-61
2022/01/18 03:29:07;;;;;;;19.60;10.00;;;;;;;-143.53;100.00;58366.03;2084418;28;20223;-62
2022/01/18 03:30:10;;;;;;;22.42;10.25;;;;;;;-143.53;100.00;58366.03;2089833;28;20515;-62
2022/01/18 03:31:11;;;;;;;26.30;12.05;;;;;;;-143.53;100.00;58366.03;2092939;28;20192;-62
2022/01/18 03:32:13;;;;;;;18.67;10.15;;;;;;;-143.53;100.00;58366.03;2093321;28;20651;-62
2022/01/18 03:33:17;;;;;;;22.40;11.20;;;;;;;-143.53;100.00;58366.03;2092156;28;20884;-61
2022/01/18 03:34:19;;;;;;;22.52;10.30;;;;;;;-143.53;100.00;58366.03;2091188;28;20228;-61
2022/01/18 03:35:23;;;;;;;19.40;10.63;;;;;;;-143.53;100.00;58366.03;2100352;28;20202;-61
2022/01/18 03:36:24;;;;;;;23.88;10.85;;;;;;;-143.53;100.00;58366.03;2108852;28;20194;-61
2022/01/18 03:37:25;;;;;;;16.20;10.15;;;;;;;-143.53;100.00;58366.03;2091745;28;20195;-61
2022/01/18 03:38:31;;;;;;;22.35;10.98;;;;;;;-143.53;100.00;58366.03;2093197;28;20202;-61
2022/01/18 03:39:32;;;;;;;21.23;12.15;;;;;;;-143.53;100.00;58366.03;2091225;28;20235;-62
2022/01/18 03:40:34;;;;;;;20.45;10.55;;;;;;;-143.53;100.00;58366.03;2093018;28;20226;-61
2022/01/18 03:41:35;;;;;;;18.23;10.95;;;;;;;-143.53;100.00;58366.03;2092150;28;20204;-61
2022/01/18 03:42:42;;;;;;;20.17;11.05;;;;;;;-143.53;100.00;58366.03;2092444;28;20192;-61
2022/01/18 03:43:43;;;;;;;22.75;11.35;;;;;;;-143.53;100.00;58366.03;2092227;28;20192;-61
2022/01/18 03:44:47;;;;;;;20.25;10.70;;;;;;;-143.53;100.00;58366.03;2092486;28;20223;-61
2022/01/18 03:45:54;;;;;;;25.80;10.68;;;;;;;-143.53;100.00;58366.03;2091604;28;20223;-61
2022/01/18 03:46:56;;;;;;;28.48;11.80;;;;;;;-143.53;100.00;58366.03;2093521;28;20200;-62
2022/01/18 03:48:03;;;;;;;22.15;10.80;;;;;;;-143.53;100.00;58366.03;2093257;28;20203;-61
2022/01/18 03:49:05;;;;;;;22.70;11.18;;;;;;;-143.53;100.00;58366.03;2092053;28;20200;-61
2022/01/18 03:50:09;;;;;;;23.60;11.00;;;;;;;-143.53;100.00;58366.03;2092282;28;20208;-62
2022/01/18 03:51:10;;;;;;;23.88;11.35;;;;;;;-143.53;100.00;58366.03;2092734;28;20550;-61
2022/01/18 03:52:12;;;;;;;24.20;11.68;;;;;;;-143.53;100.00;58366.03;2092647;28;20196;-61
2022/01/18 03:53:13;;;;;;;20.90;10.77;;;;;;;-143.53;100.00;58366.03;2092627;28;20196;-61
2022/01/18 03:54:21;;;;;;;23.05;10.95;;;;;;;-143.53;100.00;58366.03;2091680;28;20200;-61
2022/01/18 03:55:23;;;;;;;19.08;11.60;;;;;;;-143.53;100.00;58366.03;2090991;28;20191;-62
2022/01/18 03:56:25;;;;;;;24.33;13.05;;;;;;;-143.53;100.00;58366.03;2092209;28;20196;-62
2022/01/18 03:57:26;;;;;;;27.70;12.48;;;;;;;-143.53;100.00;58366.03;2091922;28;20205;-61
2022/01/18 03:58:28;;;;;;;24.55;12.55;;;;;;;-143.53;100.00;58366.03;2090998;28;20196;-61
2022/01/18 03:59:29;;;;;;;23.73;11.63;;;;;;;-143.53;100.00;58366.03;2092301;28;20235;-61
2022/01/18 04:00:31;;;;;;;22.25;11.43;;;;;;;-143.53;100.00;58366.03;2092044;28;20210;-61
2022/01/18 04:01:32;;;;;;;27.88;12.75;;;;;;;-143.53;100.00;58366.03;2092103;28;20192;-61
2022/01/18 04:02:35;;;;;;;18.98;11.32;;;;;;;-143.53;100.00;58366.03;2093620;28;20291;-62
2022/01/18 04:03:36;;;;;;;26.55;10.60;;;;;;;-143.53;100.00;58366.03;2092469;28;20204;-62
2022/01/18 04:04:39;;;;;;;21.42;11.23;;;;;;;-143.53;100.00;58366.03;2091657;28;20252;-61
2022/01/18 04:05:41;;;;;;;29.75;12.77;;;;;;;-143.53;100.00;58366.03;2093051;28;20239;-62
2022/01/18 04:06:42;;;;;;;30.52;12.10;;;;;;;-143.53;100.00;58366.03;2093502;28;20205;-61
2022/01/18 04:07:44;;;;;;;26.15;11.88;;;;;;;-143.53;100.00;58366.03;2093348;28;20211;-61
2022/01/18 04:08:45;;;;;;;28.27;12.25;;;;;;;-143.53;100.00;58366.03;2093158;28;20206;-61
2022/01/18 04:09:52;;;;;;;26.95;10.95;;;;;;;-143.53;100.00;58366.03;2089265;28;20310;-61
2022/01/18 04:10:53;;;;;;;22.98;11.38;;;;;;;-143.53;100.00;58366.03;2093304;28;20642;-61
2022/01/18 04:11:55;;;;;;;23.42;12.82;;;;;;;-143.53;100.00;58366.03;2092854;28;20199;-61
2022/01/18 04:12:56;;;;;;;21.73;12.18;;;;;;;-143.53;100.00;58366.03;2090040;28;20724;-61
2022/01/18 04:13:59;;;;;;;26.40;12.65;;;;;;;-143.53;100.00;58366.03;2092618;28;20197;-62
2022/01/18 04:15:05;;;;;;;25.95;12.35;;;;;;;-143.53;100.00;58366.03;2092238;28;20546;-62
2022/01/18 04:16:06;;;;;;;23.77;10.88;;;;;;;-143.53;100.00;58366.03;2092737;28;20568;-62
2022/01/18 04:17:30;;;;;;;24.38;12.25;;;;;;;-143.53;100.00;58366.03;2093099;28;20195;-62
2022/01/18 04:18:59;;;;;;;20.98;11.32;;;;;;;-143.53;100.00;58366.03;2092172;28;21168;-61
2022/01/18 04:27:41;;;;;;;28.98;13.38;;;;;;;-143.53;100.00;58366.03;2092345;28;20208;-61
2022/01/18 04:28:44;;;;;;;24.80;13.10;;;;;;;-143.53;100.00;58366.03;2091363;28;20208;-61
2022/01/18 04:29:47;;;;;;;28.60;11.63;;;;;;;-143.53;100.00;58366.03;2091083;28;20238;-61
2022/01/18 04:30:48;;;;;;;31.35;12.20;;;;;;;-143.53;100.00;58366.03;2091587;28;20196;-61
2022/01/18 04:31:50;;;;;;;26.33;13.23;;;;;;;-143.53;100.00;58366.03;2092801;28;20207;-62
2022/01/18 04:32:52;;;;;;;24.60;12.98;;;;;;;-143.53;100.00;58366.03;2092218;28;20203;-62
2022/01/18 04:33:54;;;;;;;27.30;13.00;;;;;;;-143.53;100.00;58366.03;2092651;28;20200;-62
2022/01/18 04:34:55;;;;;;;25.73;11.88;;;;;;;-143.53;100.00;58366.03;2091721;28;20277;-61
2022/01/18 04:35:57;;;;;;;27.92;12.57;;;;;;;-143.53;100.00;58366.03;2091816;28;20215;-62
2022/01/18 04:36:58;;;;;;;26.17;14.18;;;;;;;-143.53;100.00;58366.03;2091538;28;20210;-62
2022/01/18 04:38:00;;;;;;;27.13;13.57;;;;;;;-143.53;100.00;58366.03;2092471;28;20584;-62
2022/01/18 04:39:02;;;;;;;26.13;12.80;;;;;;;-143.53;100.00;58366.03;2091753;28;20193;-62
2022/01/18 04:40:12;;;;;;;27.20;12.80;;;;;;;-143.53;100.00;58366.03;2092263;28;20768;-62
2022/01/18 04:41:17;;;;;;;22.17;12.27;;;;;;;-143.53;100.00;58366.03;2092601;28;20204;-62
2022/01/18 04:42:35;;;;;;;23.35;12.48;;;;;;;-143.53;100.00;58366.03;2090134;28;20215;-62
2022/01/18 04:49:01;;;;;;;25.05;12.55;;;;;;;-143.53;100.00;58366.03;2092651;28;20199;-62
2022/01/18 04:50:02;;;;;;;37.25;13.25;;;;;;;-143.53;100.00;58366.03;2092280;28;20227;-62
2022/01/18 04:51:10;;;;;;;25.35;12.88;;;;;;;-143.53;100.00;58366.03;2092730;28;20234;-62
2022/01/18 04:52:13;;;;;;;25.83;13.18;;;;;;;-143.53;100.00;58366.03;2092082;28;20197;-62
2022/01/18 04:53:14;;;;;;;30.23;12.63;;;;;;;-143.53;100.00;58366.03;2092504;28;20647;-61
2022/01/18 04:54:16;;;;;;;32.72;13.82;;;;;;;-143.53;100.00;58366.03;2092692;28;20611;-62
2022/01/18 04:55:18;;;;;;;33.10;15.25;;;;;;;-143.53;100.00;58366.03;2093066;28;20204;-62
2022/01/18 04:57:54;;;;;;;36.75;13.95;;;;;;;-143.53;100.00;58366.03;2092824;28;20200;-62
2022/01/18 04:58:56;;;;;;;28.42;12.48;;;;;;;-143.53;100.00;58366.03;2092465;28;20310;-62
2022/01/18 04:59:58;;;;;;;33.78;14.82;;;;;;;-143.53;100.00;58366.03;2095378;28;20293;-62
2022/01/18 05:01:01;;;;;;;31.20;14.45;;;;;;;-143.53;100.00;58366.03;2096111;28;20233;-62
2022/01/18 05:02:04;;;;;;;26.38;14.23;;;;;;;-143.53;100.00;58366.03;2092610;28;20200;-62
2022/01/18 05:03:05;;;;;;;25.17;13.38;;;;;;;-143.53;100.00;58366.03;2093176;28;20268;-62
2022/01/18 05:04:09;;;;;;;25.48;12.45;;;;;;;-143.53;100.00;58366.03;2092223;28;20200;-62
2022/01/18 05:05:11;;;;;;;22.98;12.43;;;;;;;-143.53;100.00;58366.03;2092561;28;20203;-62
2022/01/18 05:06:16;;;;;;;30.60;15.15;;;;;;;-143.53;100.00;58366.03;2092283;28;20188;-62
2022/01/18 05:07:19;;;;;;;23.92;13.43;;;;;;;-143.53;100.00;58366.03;2091910;28;20576;-62
2022/01/18 05:08:20;;;;;;;30.17;12.95;;;;;;;-143.53;100.00;58366.03;2092826;28;20196;-62
2022/01/18 05:09:22;;;;;;;27.70;13.75;;;;;;;-143.53;100.00;58366.03;2090431;28;20192;-62
2022/01/18 05:10:27;;;;;;;32.35;14.35;;;;;;;-143.53;100.00;58366.03;2094088;28;20208;-62
2022/01/18 05:11:32;;;;;;;25.23;13.80;;;;;;;-143.53;100.00;58366.03;2094091;28;20199;-62
2022/01/18 05:12:53;;;;;;;27.33;12.85;;;;;;;-143.53;100.00;58366.03;2094319;28;20205;-62
2022/01/18 05:15:08;;;;;;;32.05;13.98;;;;;;;-143.53;100.00;58366.03;2093490;28;20734;-61
2022/01/18 05:17:40;;;;;;;29.05;15.00;;;;;;;-143.53;100.00;58366.03;2094429;28;20932;-62
2022/01/18 05:23:06;;;;;;;27.42;13.93;;;;;;;-143.53;100.00;58366.03;2094390;28;20196;-62
2022/01/18 05:24:09;;;;;;;32.00;13.85;;;;;;;-143.53;100.00;58366.03;2092314;28;20282;-62
2022/01/18 05:25:10;;;;;;;35.60;13.88;;;;;;;-143.53;100.00;58366.03;2093910;28;20222;-62
2022/01/18 05:26:12;;;;;;;28.15;13.63;;;;;;;-143.53;100.00;58366.03;2094680;28;20227;-62
2022/01/18 05:27:14;;;;;;;28.98;14.57;;;;;;;-143.53;100.00;58366.03;2093792;28;20195;-62
2022/01/18 05:28:15;;;;;;;26.60;13.70;;;;;;;-143.53;100.00;58366.03;2094517;28;20214;-62
2022/01/18 05:29:17;;;;;;;27.92;15.10;;;;;;;-143.53;100.00;58366.03;2093742;28;20610;-63
2022/01/18 05:30:19;;;;;;;32.90;14.25;;;;;;;-143.53;100.00;58366.03;2094431;28;20248;-62
2022/01/18 05:31:20;;;;;;;31.13;14.13;;;;;;;-143.53;100.00;58366.03;2094546;28;20658;-62
2022/01/18 05:32:22;;;;;;;26.65;12.93;;;;;;;-143.53;100.00;58366.03;2094374;28;20207;-63
2022/01/18 05:33:23;;;;;;;36.42;15.20;;;;;;;-143.53;100.00;58366.03;2094322;28;20191;-63
2022/01/18 05:34:25;;;;;;;28.50;14.48;;;;;;;-143.53;100.00;58366.03;2091321;28;20232;-62
2022/01/18 05:35:26;;;;;;;32.00;13.90;;;;;;;-143.53;100.00;58366.03;2093434;28;20219;-62
2022/01/18 05:36:29;;;;;;;29.40;14.23;;;;;;;-143.53;100.00;58366.03;2094108;28;20947;-62
2022/01/18 05:37:30;;;;;;;27.35;15.25;;;;;;;-143.53;100.00;58366.03;2094092;28;20196;-62
2022/01/18 05:38:33;;;;;;;31.27;15.38;;;;;;;-143.53;100.00;58366.03;2093665;28;20663;-62
2022/01/18 05:39:34;;;;;;;35.38;15.35;;;;;;;-143.53;100.00;58366.03;2093705;28;20223;-62
2022/01/18 05:40:37;;;;;;;31.55;13.77;;;;;;;-143.53;100.00;58366.03;2094223;28;20199;-62
2022/01/18 05:41:41;;;;;;;30.85;15.15;;;;;;;-143.53;100.00;58366.03;2094079;28;20264;-62
2022/01/18 05:42:43;;;;;;;38.60;14.80;;;;;;;-143.53;100.00;58366.03;2093660;28;20203;-62
2022/01/18 05:43:45;;;;;;;27.45;12.95;;;;;;;-143.53;100.00;58366.03;2092975;28;20317;-62
2022/01/18 05:44:48;;;;;;;37.20;14.00;;;;;;;-143.53;100.00;58366.03;2093339;28;20227;-62
2022/01/18 05:45:49;;;;;;;29.30;13.88;;;;;;;-143.53;100.00;58366.03;2093776;28;20207;-63
2022/01/18 05:46:51;;;;;;;32.85;14.25;;;;;;;-143.53;100.00;58366.03;2094572;28;20201;-63